Time;durP1;ratioP1;P1;durP2;ratioP2;P2;SDS_P1;SDS_P2;PMS_P1;PMS_P2;Temp;Humidity;BMP_temperature;BMP_pressure;BME280_temperature;BME280_humidity;BME280_pressure;Samples;Min_cycle;Max_cycle;Signal;HPM_P1;HPM_P2
2022/03/07 00:00:49;;;;;;;33.38;8.38;;;;;;;0.61;95.96;98571.25;5007538;28;20140;-58
2022/03/07 00:03:15;;;;;;;39.80;9.30;;;;;;;0.46;98.73;98568.53;5003533;28;20026;-57
2022/03/07 00:05:40;;;;;;;41.28;9.35;;;;;;;0.89;100.00;98567.16;5002578;28;20048;-57
2022/03/07 00:08:05;;;;;;;35.75;9.27;;;;;;;0.40;100.00;98569.34;5005056;28;20033;-56
2022/03/07 00:10:31;;;;;;;34.05;8.68;;;;;;;0.40;100.00;98578.78;5005258;28;20033;-57
2022/03/07 00:12:56;;;;;;;33.78;8.32;;;;;;;0.91;100.00;98573.19;5003690;28;20446;-58
2022/03/07 00:15:21;;;;;;;37.58;9.77;;;;;;;0.85;100.00;98573.16;5002196;28;20022;-56
2022/03/07 00:17:47;;;;;;;33.20;8.88;;;;;;;0.71;100.00;98580.72;5002684;28;20964;-57
2022/03/07 00:20:12;;;;;;;43.05;9.90;;;;;;;1.08;100.00;98578.41;5002673;28;20036;-57
2022/03/07 00:22:38;;;;;;;26.50;8.23;;;;;;;0.05;100.00;98569.03;5002536;28;20663;-56
2022/03/07 00:25:03;;;;;;;42.67;9.23;;;;;;;0.28;100.00;98571.84;4988312;28;20036;-59
2022/03/07 00:27:29;;;;;;;42.47;9.38;;;;;;;0.15;100.00;98571.72;5005714;28;20064;-58
2022/03/07 00:29:54;;;;;;;37.92;8.93;;;;;;;-0.07;100.00;98572.34;5006152;28;20075;-58
2022/03/07 00:32:19;;;;;;;67.05;11.45;;;;;;;0.19;100.00;98575.16;5001397;28;20053;-57
2022/03/07 00:34:45;;;;;;;52.42;10.27;;;;;;;0.43;100.00;98579.66;5003953;28;20108;-55
2022/03/07 00:37:10;;;;;;;43.35;9.73;;;;;;;0.37;100.00;98579.63;5004666;28;20045;-58
2022/03/07 00:39:35;;;;;;;41.55;9.43;;;;;;;0.39;100.00;98580.47;5007617;28;20018;-57
2022/03/07 00:42:01;;;;;;;41.88;9.38;;;;;;;0.24;100.00;98572.63;5005919;28;20046;-56
2022/03/07 00:44:26;;;;;;;40.25;9.05;;;;;;;0.63;100.00;98581.53;5007523;28;20072;-57
2022/03/07 00:46:51;;;;;;;36.80;9.45;;;;;;;0.65;100.00;98584.97;5005920;28;20112;-57
2022/03/07 00:49:17;;;;;;;41.85;9.55;;;;;;;0.51;100.00;98583.13;5008008;28;20017;-56
2022/03/07 00:51:42;;;;;;;39.75;9.85;;;;;;;0.61;100.00;98583.22;5007476;28;20634;-58
2022/03/07 00:54:07;;;;;;;41.92;9.52;;;;;;;0.64;100.00;98580.69;5008624;28;20029;-56
2022/03/07 00:56:33;;;;;;;46.03;10.70;;;;;;;0.78;100.00;98581.66;5008072;28;20125;-57
2022/03/07 00:58:59;;;;;;;36.55;8.75;;;;;;;0.31;100.00;98574.41;5008522;28;20018;-58
2022/03/07 01:01:24;;;;;;;32.80;9.02;;;;;;;0.15;100.00;98579.41;5006154;28;20254;-60
2022/03/07 01:03:50;;;;;;;44.00;10.32;;;;;;;0.08;100.00;98571.63;5006339;28;20491;-56
2022/03/07 01:06:15;;;;;;;39.70;9.95;;;;;;;0.06;100.00;98574.19;5007914;28;20054;-58
2022/03/07 01:08:41;;;;;;;40.28;8.65;;;;;;;-0.18;100.00;98581.59;5007916;28;20025;-58
2022/03/07 01:11:06;;;;;;;36.13;9.85;;;;;;;0.13;100.00;98583.66;5009496;28;20927;-58
2022/03/07 01:13:31;;;;;;;35.70;9.20;;;;;;;-0.32;100.00;98574.63;5008401;28;20065;-57
2022/03/07 01:15:57;;;;;;;39.10;10.07;;;;;;;-0.29;100.00;98579.78;5006401;28;20041;-58
2022/03/07 01:18:23;;;;;;;43.13;10.00;;;;;;;-0.01;100.00;98568.13;5009615;28;20300;-57
2022/03/07 01:20:48;;;;;;;41.28;10.32;;;;;;;0.02;100.00;98576.69;5007126;28;20099;-57
2022/03/07 01:23:13;;;;;;;37.40;10.45;;;;;;;-0.21;100.00;98575.59;5008625;28;20030;-57
2022/03/07 01:25:39;;;;;;;36.28;9.07;;;;;;;-0.38;100.00;98572.00;5006862;28;20408;-56
2022/03/07 01:28:04;;;;;;;34.30;9.20;;;;;;;-0.45;100.00;98570.19;5007789;28;20077;-57
2022/03/07 01:30:29;;;;;;;38.65;9.50;;;;;;;-0.30;100.00;98575.50;5007756;28;20061;-58
2022/03/07 01:32:55;;;;;;;42.13;9.80;;;;;;;0.09;100.00;98563.97;5008253;28;20516;-56
2022/03/07 01:35:20;;;;;;;39.40;9.77;;;;;;;0.23;100.00;98571.78;5007664;28;20813;-56
2022/03/07 01:37:47;;;;;;;37.97;9.52;;;;;;;-0.09;100.00;98569.75;5007370;28;20033;-57
2022/03/07 01:40:13;;;;;;;40.22;9.85;;;;;;;0.40;100.00;98565.94;5007516;28;20030;-58
2022/03/07 01:42:39;;;;;;;38.72;10.18;;;;;;;-0.27;100.00;98562.72;5009148;28;20026;-57
2022/03/07 01:45:11;;;;;;;45.42;10.88;;;;;;;0.09;100.00;98563.97;5007435;28;20143;-56
2022/03/07 01:47:37;;;;;;;42.83;10.30;;;;;;;-0.26;100.00;98555.88;4989024;28;20500;-58
2022/03/07 01:50:04;;;;;;;42.08;9.68;;;;;;;-0.14;100.00;98560.28;4988125;28;20022;-54
2022/03/07 01:52:32;;;;;;;42.70;9.70;;;;;;;-0.29;100.00;98564.41;5007100;28;20034;-57
2022/03/07 01:54:57;;;;;;;45.30;10.20;;;;;;;-0.57;100.00;98552.09;5014854;28;20478;-57
2022/03/07 01:57:23;;;;;;;39.53;10.07;;;;;;;-0.46;100.00;98558.19;5005975;28;20044;-57
2022/03/07 01:59:48;;;;;;;36.55;9.60;;;;;;;-0.46;100.00;98559.09;5009179;28;20402;-56
2022/03/07 02:02:14;;;;;;;43.58;10.13;;;;;;;-0.40;100.00;98553.16;5005810;28;20034;-56
2022/03/07 02:04:40;;;;;;;39.55;10.50;;;;;;;-0.29;100.00;98551.59;5005510;28;20442;-57
2022/03/07 02:07:05;;;;;;;41.65;10.00;;;;;;;-0.79;100.00;98555.25;5006759;28;20061;-58
2022/03/07 02:09:30;;;;;;;44.65;9.90;;;;;;;-0.67;100.00;98554.53;5008080;28;20025;-57
2022/03/07 02:11:56;;;;;;;41.53;9.98;;;;;;;-0.82;100.00;98549.22;5006268;28;20583;-56
2022/03/07 02:14:22;;;;;;;48.92;9.82;;;;;;;-1.02;100.00;98559.19;5006747;28;20033;-56
2022/03/07 02:16:49;;;;;;;37.00;9.70;;;;;;;-0.76;100.00;98549.28;5006685;28;20034;-58
2022/03/07 02:19:14;;;;;;;37.33;8.52;;;;;;;-0.73;100.00;98558.75;5008398;28;20045;-58
2022/03/07 02:21:46;;;;;;;43.35;9.57;;;;;;;-0.79;100.00;98559.50;5005855;28;20404;-56
2022/03/07 02:24:12;;;;;;;37.88;9.75;;;;;;;-0.62;100.00;98552.91;5008327;28;20060;-58
2022/03/07 02:26:38;;;;;;;44.95;9.10;;;;;;;-0.59;100.00;98552.06;5006023;28;20061;-55
2022/03/07 02:29:03;;;;;;;40.45;9.75;;;;;;;-0.75;100.00;98561.28;5006840;28;20149;-58
2022/03/07 02:31:29;;;;;;;42.45;9.57;;;;;;;-0.65;100.00;98554.56;5007320;28;20050;-57
2022/03/07 02:33:55;;;;;;;37.42;9.05;;;;;;;-0.69;100.00;98555.38;5006359;28;20522;-56
2022/03/07 02:36:21;;;;;;;41.55;9.40;;;;;;;-0.32;100.00;98556.66;5006377;28;20026;-58
2022/03/07 02:38:46;;;;;;;43.45;9.40;;;;;;;-0.43;100.00;98548.00;5004319;28;20029;-58
2022/03/07 02:41:12;;;;;;;42.17;9.63;;;;;;;-0.80;100.00;98556.09;5005739;28;20052;-56
2022/03/07 02:43:37;;;;;;;50.38;10.15;;;;;;;-0.51;100.00;98544.50;5005301;28;20392;-56
2022/03/07 02:46:03;;;;;;;31.52;8.57;;;;;;;-0.23;100.00;98546.50;5004986;28;20034;-57
2022/03/07 02:48:29;;;;;;;38.13;9.25;;;;;;;-0.59;100.00;98547.81;5006979;28;20045;-57
2022/03/07 02:50:55;;;;;;;36.97;8.82;;;;;;;-0.31;100.00;98547.25;5005779;28;20180;-58
2022/03/07 02:53:21;;;;;;;34.97;8.90;;;;;;;-0.62;100.00;98547.78;5007085;28;20029;-56
2022/03/07 02:55:47;;;;;;;39.33;9.32;;;;;;;-0.45;100.00;98550.53;5002251;28;20046;-57
2022/03/07 02:58:12;;;;;;;43.53;9.32;;;;;;;-0.33;100.00;98544.72;5003659;28;20025;-56
2022/03/07 03:00:38;;;;;;;34.53;8.75;;;;;;;-0.19;100.00;98542.28;5004279;28;20033;-59
2022/03/07 03:03:03;;;;;;;44.28;10.10;;;;;;;-0.46;100.00;98547.94;5007284;28;20038;-57
2022/03/07 03:05:29;;;;;;;40.35;9.43;;;;;;;-0.47;100.00;98548.81;5003541;28;20038;-56
2022/03/07 03:07:54;;;;;;;40.15;8.77;;;;;;;-0.51;100.00;98552.19;5007255;28;20087;-61
2022/03/07 03:10:20;;;;;;;39.55;8.70;;;;;;;-0.33;100.00;98552.41;5006027;28;20867;-58
2022/03/07 03:12:48;;;;;;;31.48;7.45;;;;;;;-0.89;100.00;98558.53;5007198;28;20084;-57
2022/03/07 03:15:14;;;;;;;35.83;7.85;;;;;;;-0.15;100.00;98550.88;5005218;28;20125;-59
2022/03/07 03:17:45;;;;;;;43.72;9.75;;;;;;;-0.07;100.00;98556.94;5005858;28;20037;-58
2022/03/07 03:20:12;;;;;;;37.15;8.38;;;;;;;-0.60;100.00;98556.34;5005788;28;20160;-57
2022/03/07 03:22:38;;;;;;;37.30;8.50;;;;;;;-0.21;100.00;98557.66;5006878;28;20065;-57
2022/03/07 03:25:05;;;;;;;30.88;7.90;;;;;;;-0.12;100.00;98548.34;5006150;28;20042;-56
2022/03/07 03:27:30;;;;;;;30.90;8.13;;;;;;;-0.09;100.00;98553.47;5006085;28;20044;-58
2022/03/07 03:29:56;;;;;;;39.53;8.57;;;;;;;-0.24;100.00;98551.63;5006481;28;20025;-57
2022/03/07 03:32:21;;;;;;;43.13;9.65;;;;;;;0.01;100.00;98565.56;5002948;28;20062;-57
2022/03/07 03:34:46;;;;;;;50.00;10.27;;;;;;;-0.27;100.00;98565.28;5005715;28;20055;-58
2022/03/07 03:37:12;;;;;;;33.17;7.35;;;;;;;0.18;100.00;98568.28;5004883;28;20132;-58
2022/03/07 03:39:37;;;;;;;36.92;9.02;;;;;;;0.13;100.00;98570.84;5006105;28;20018;-57
2022/03/07 03:42:03;;;;;;;34.70;9.00;;;;;;;0.11;100.00;98567.41;5005623;28;20129;-57
2022/03/07 03:44:28;;;;;;;42.95;9.02;;;;;;;-0.26;100.00;98567.00;5006129;28;20053;-58
2022/03/07 03:46:53;;;;;;;33.53;8.32;;;;;;;-0.17;100.00;98567.94;5006352;28;20127;-56
2022/03/07 03:49:19;;;;;;;40.40;9.05;;;;;;;-0.06;100.00;98556.94;5004638;28;20071;-58
2022/03/07 03:51:44;;;;;;;38.35;8.75;;;;;;;-0.10;100.00;98559.47;5004439;28;20035;-58
2022/03/07 03:54:10;;;;;;;36.45;8.60;;;;;;;-0.21;100.00;98560.22;5006595;28;20033;-56
2022/03/07 03:56:35;;;;;;;33.75;8.63;;;;;;;-0.18;100.00;98569.66;5005423;28;20042;-58
2022/03/07 03:59:00;;;;;;;41.33;9.20;;;;;;;0.11;100.00;98572.53;5002971;28;20022;-56
2022/03/07 04:01:26;;;;;;;39.65;8.85;;;;;;;-0.13;100.00;98572.25;5003419;28;20139;-58
2022/03/07 04:03:51;;;;;;;31.23;8.80;;;;;;;-0.15;97.50;98574.78;5002221;28;20021;-57
2022/03/07 04:06:16;;;;;;;39.15;8.88;;;;;;;-0.25;95.49;98578.97;5003139;28;20041;-58
2022/03/07 04:08:42;;;;;;;33.13;8.90;;;;;;;0.04;100.00;98570.75;5003874;28;20029;-57
2022/03/07 04:11:07;;;;;;;38.88;9.02;;;;;;;-0.14;100.00;98575.69;5006113;28;20064;-58
2022/03/07 04:13:32;;;;;;;35.60;8.48;;;;;;;-0.61;93.55;98579.38;5008480;28;20420;-57
2022/03/07 04:15:58;;;;;;;43.10;9.82;;;;;;;-0.57;91.03;98570.88;5005756;28;20076;-57
2022/03/07 04:18:23;;;;;;;30.25;8.10;;;;;;;-0.46;97.23;98579.59;5008789;28;20033;-58
2022/03/07 04:20:48;;;;;;;41.15;9.52;;;;;;;-0.68;92.99;98580.13;5010106;28;20530;-56
2022/03/07 04:23:20;;;;;;;32.10;8.50;;;;;;;-0.68;87.78;98583.59;5009267;28;20057;-59
2022/03/07 04:25:46;;;;;;;33.97;7.82;;;;;;;-0.30;100.00;98584.88;5008382;28;20040;-58
2022/03/07 04:28:11;;;;;;;39.08;9.02;;;;;;;-0.89;88.04;98589.25;5010654;28;20029;-58
2022/03/07 04:30:37;;;;;;;38.75;8.90;;;;;;;-0.28;100.00;98578.06;5008612;28;20198;-57
2022/03/07 04:33:02;;;;;;;26.70;7.47;;;;;;;-0.23;100.00;98577.28;5008990;28;20041;-56
2022/03/07 04:35:27;;;;;;;34.28;8.65;;;;;;;-0.19;100.00;98578.19;5010431;28;20030;-57
2022/03/07 04:37:53;;;;;;;41.85;9.93;;;;;;;-0.51;99.96;98578.66;5008144;28;20107;-57
2022/03/07 04:40:18;;;;;;;36.95;8.98;;;;;;;-0.65;94.07;98583.59;5010260;28;20830;-59
2022/03/07 04:42:44;;;;;;;40.13;9.77;;;;;;;-0.59;92.81;98587.94;5007877;28;20116;-57
2022/03/07 04:45:14;;;;;;;40.30;9.70;;;;;;;-0.67;92.64;98595.53;5009055;28;20809;-56
2022/03/07 04:47:40;;;;;;;43.95;9.77;;;;;;;-1.12;83.88;98588.94;5010643;28;20014;-56
2022/03/07 04:50:06;;;;;;;37.80;9.48;;;;;;;-0.73;85.50;98594.59;5008495;28;20026;-58
2022/03/07 04:52:32;;;;;;;37.05;9.60;;;;;;;-0.65;92.09;98593.84;5009946;28;20025;-56
2022/03/07 04:54:58;;;;;;;48.97;10.93;;;;;;;-0.88;97.34;98595.22;5009414;28;20359;-56
2022/03/07 04:57:23;;;;;;;38.95;9.13;;;;;;;-0.58;100.00;98592.25;5008857;28;20037;-56
2022/03/07 04:59:49;;;;;;;40.60;10.13;;;;;;;-0.92;94.17;98598.59;5008283;28;20068;-58
2022/03/07 05:02:14;;;;;;;49.00;10.15;;;;;;;-1.10;85.71;98605.19;5007278;28;20042;-56
2022/03/07 05:04:40;;;;;;;33.50;9.52;;;;;;;-0.83;100.00;98608.97;5010635;28;20041;-57
2022/03/07 05:07:06;;;;;;;38.20;10.30;;;;;;;-0.96;100.00;98607.94;5008841;28;20078;-58
2022/03/07 05:09:32;;;;;;;37.75;9.82;;;;;;;-0.94;100.00;98611.38;5008692;28;20105;-57
2022/03/07 05:11:58;;;;;;;39.80;9.45;;;;;;;-1.04;100.00;98610.38;5005976;28;20056;-57
2022/03/07 05:14:23;;;;;;;42.38;8.38;;;;;;;-0.89;100.00;98606.34;5010100;28;20519;-58
2022/03/07 05:16:48;;;;;;;45.25;10.80;;;;;;;-1.16;100.00;98610.19;5005764;28;20088;-57
2022/03/07 05:19:14;;;;;;;38.20;9.18;;;;;;;-1.05;100.00;98612.91;5008665;28;20022;-56
2022/03/07 05:21:39;;;;;;;37.65;9.85;;;;;;;-1.22;95.13;98615.22;5008082;28;20049;-59
2022/03/07 05:24:05;;;;;;;36.70;8.68;;;;;;;-0.88;100.00;98615.72;5006204;28;20022;-58
2022/03/07 05:26:31;;;;;;;37.92;9.00;;;;;;;-1.02;100.00;98607.84;5008967;28;20061;-56
2022/03/07 05:28:56;;;;;;;42.55;10.27;;;;;;;-1.31;97.23;98622.75;5008626;28;20408;-58
2022/03/07 05:31:22;;;;;;;37.90;9.27;;;;;;;-1.18;100.00;98614.41;5009156;28;20050;-58
2022/03/07 05:33:47;;;;;;;37.45;9.85;;;;;;;-1.37;100.00;98619.25;5008073;28;20088;-58
2022/03/07 05:36:13;;;;;;;36.63;8.98;;;;;;;-1.16;100.00;98612.75;5005777;28;20656;-57
2022/03/07 05:38:38;;;;;;;41.38;10.48;;;;;;;-1.32;100.00;98623.56;5008649;28;20492;-59
2022/03/07 05:41:04;;;;;;;40.15;10.48;;;;;;;-1.32;100.00;98618.44;5007313;28;20898;-59
2022/03/07 05:43:29;;;;;;;50.42;10.75;;;;;;;-1.48;100.00;98623.31;5008448;28;20025;-59
2022/03/07 05:45:54;;;;;;;44.17;10.38;;;;;;;-1.64;100.00;98616.22;5007474;28;20470;-58
2022/03/07 05:48:20;;;;;;;35.15;9.13;;;;;;;-1.65;100.00;98617.06;5009387;28;20715;-57
2022/03/07 05:50:45;;;;;;;37.50;10.35;;;;;;;-1.68;100.00;98617.00;5009256;28;20087;-58
2022/03/07 05:53:11;;;;;;;36.50;9.85;;;;;;;-1.25;100.00;98613.47;5010248;28;20098;-56
2022/03/07 05:55:36;;;;;;;34.63;10.07;;;;;;;-1.32;100.00;98615.91;5007718;28;20080;-58
2022/03/07 05:58:02;;;;;;;44.88;11.02;;;;;;;-1.39;98.34;98625.19;5006998;28;20030;-58
2022/03/07 06:00:29;;;;;;;41.35;10.13;;;;;;;-1.51;100.00;98622.41;5006741;28;20115;-57
2022/03/07 06:02:54;;;;;;;40.67;10.57;;;;;;;-1.41;100.00;98635.41;5009397;28;20107;-57
2022/03/07 06:05:20;;;;;;;35.00;10.20;;;;;;;-1.21;100.00;98625.50;5006089;28;20444;-57
2022/03/07 06:07:46;;;;;;;45.15;10.77;;;;;;;-1.29;100.00;98633.88;5008120;28;20018;-58
2022/03/07 06:10:11;;;;;;;42.05;11.18;;;;;;;-1.38;96.00;98630.34;5006678;28;20435;-56
2022/03/07 06:12:36;;;;;;;37.22;9.40;;;;;;;-0.80;100.00;98625.25;5006004;28;20752;-57
2022/03/07 06:15:04;;;;;;;39.22;10.30;;;;;;;-1.20;99.56;98634.03;5006343;28;20036;-58
2022/03/07 06:17:31;;;;;;;39.72;10.05;;;;;;;-0.95;100.00;98634.41;5007997;28;20037;-57
2022/03/07 06:19:56;;;;;;;43.42;11.00;;;;;;;-0.97;100.00;98637.81;5007613;28;20112;-57
2022/03/07 06:22:22;;;;;;;37.38;10.75;;;;;;;-0.81;100.00;98630.34;5006047;28;20047;-58
2022/03/07 06:24:47;;;;;;;56.63;11.30;;;;;;;-0.18;97.07;98630.31;5007520;28;20025;-58
2022/03/07 06:27:12;;;;;;;44.55;11.70;;;;;;;-0.60;92.71;98634.91;5006695;28;20501;-58
2022/03/07 06:29:37;;;;;;;44.53;11.25;;;;;;;0.72;100.00;98627.84;5007994;28;20210;-57
2022/03/07 06:32:03;;;;;;;53.70;12.32;;;;;;;1.01;92.80;98629.75;5009617;28;20051;-58
2022/03/07 06:34:28;;;;;;;43.75;11.35;;;;;;;0.73;83.00;98629.53;5006705;28;20467;-58
2022/03/07 06:36:54;;;;;;;42.67;11.95;;;;;;;0.93;79.92;98633.13;5002993;28;20762;-57
2022/03/07 06:39:25;;;;;;;44.28;11.68;;;;;;;1.39;75.77;98631.72;5008064;28;20357;-57
2022/03/07 06:41:50;;;;;;;43.20;12.13;;;;;;;3.43;86.00;98628.66;5006985;28;20046;-56
2022/03/07 06:44:16;;;;;;;39.53;11.70;;;;;;;4.92;70.98;98630.47;5006445;28;20038;-56
2022/03/07 06:46:41;;;;;;;40.45;11.95;;;;;;;4.09;61.54;98638.75;5005002;28;20137;-57
2022/03/07 06:49:06;;;;;;;37.35;11.55;;;;;;;5.35;64.59;98639.59;5006972;28;20125;-59
2022/03/07 06:51:32;;;;;;;30.63;11.38;;;;;;;5.42;57.09;98636.03;5006466;28;20042;-58
2022/03/07 06:53:57;;;;;;;32.80;11.48;;;;;;;4.44;57.77;98643.72;5006761;28;20395;-57
2022/03/07 06:56:22;;;;;;;35.45;11.95;;;;;;;3.97;52.72;98644.84;5004443;28;20038;-56
2022/03/07 06:58:48;;;;;;;37.97;12.40;;;;;;;5.99;51.10;98648.38;5006900;28;20029;-58
2022/03/07 07:01:13;;;;;;;35.58;11.25;;;;;;;7.93;51.26;98641.84;5005273;28;20041;-59
2022/03/07 07:03:39;;;;;;;27.30;11.15;;;;;;;6.87;45.11;98645.44;5007836;28;20022;-58
2022/03/07 07:06:04;;;;;;;37.28;12.15;;;;;;;6.86;46.16;98645.47;5006624;28;20045;-59
2022/03/07 07:08:30;;;;;;;31.88;11.82;;;;;;;6.29;44.84;98654.94;5005462;28;20079;-59
2022/03/07 07:10:55;;;;;;;34.72;12.10;;;;;;;7.87;43.79;98658.41;5004847;28;20494;-59
2022/03/07 07:13:20;;;;;;;36.85;12.00;;;;;;;8.68;42.41;98650.66;5006121;28;20014;-57
2022/03/07 07:15:54;;;;;;;31.90;11.38;;;;;;;6.83;42.44;98661.06;5004282;28;20034;-57
2022/03/07 07:18:19;;;;;;;34.35;12.10;;;;;;;7.70;42.80;98663.91;5005675;28;20539;-57
2022/03/07 07:20:44;;;;;;;29.73;11.90;;;;;;;7.41;42.66;98662.72;5006808;28;20495;-59
2022/03/07 07:23:10;;;;;;;30.30;11.07;;;;;;;7.10;56.88;98663.22;5007662;28;20085;-59
2022/03/07 07:25:35;;;;;;;34.60;12.32;;;;;;;7.99;44.63;98658.16;5002058;28;20030;-60
2022/03/07 07:28:01;;;;;;;36.78;12.43;;;;;;;8.08;43.49;98662.31;5003246;28;20537;-58
2022/03/07 07:30:26;;;;;;;38.42;12.32;;;;;;;9.27;40.40;98666.59;5005108;28;20132;-57
2022/03/07 07:32:51;;;;;;;31.08;11.45;;;;;;;9.17;38.70;98669.44;5007395;28;20029;-58
2022/03/07 07:35:16;;;;;;;29.35;11.85;;;;;;;9.45;38.97;98667.88;5005507;28;20455;-58
2022/03/07 07:37:42;;;;;;;32.08;12.95;;;;;;;9.91;37.63;98670.16;5007315;28;20311;-56
2022/03/07 07:40:08;;;;;;;30.30;12.75;;;;;;;6.56;39.08;98681.31;5004516;28;20032;-57
2022/03/07 07:42:33;;;;;;;33.75;12.75;;;;;;;8.26;38.89;98682.72;5004913;28;20018;-56
2022/03/07 07:44:59;;;;;;;35.47;14.32;;;;;;;9.26;36.79;98682.25;5005496;28;20018;-57
2022/03/07 07:47:24;;;;;;;31.10;12.85;;;;;;;6.98;40.30;98693.69;5006935;28;20046;-58
2022/03/07 07:49:49;;;;;;;34.78;14.02;;;;;;;6.70;39.71;98688.94;5005301;28;20029;-58
2022/03/07 07:52:15;;;;;;;35.40;13.55;;;;;;;8.03;38.79;98678.00;5005568;28;20132;-56
2022/03/07 07:54:40;;;;;;;45.67;15.45;;;;;;;8.82;37.25;98689.34;5004101;28;20147;-57
2022/03/07 07:57:07;;;;;;;34.08;13.23;;;;;;;6.88;37.18;98698.19;5004006;28;20037;-58
2022/03/07 07:59:32;;;;;;;34.90;14.02;;;;;;;9.15;36.29;98687.69;5004975;28;20026;-59
2022/03/07 08:01:58;;;;;;;34.55;15.07;;;;;;;9.17;34.52;98687.66;5005191;28;20845;-58
2022/03/07 08:04:23;;;;;;;34.25;14.73;;;;;;;7.66;35.98;98691.66;5005690;28;20574;-57
2022/03/07 08:06:49;;;;;;;37.20;16.08;;;;;;;6.94;36.18;98703.25;5003637;28;20792;-56
2022/03/07 08:09:15;;;;;;;38.08;16.00;;;;;;;8.54;34.88;98700.38;5003437;28;20049;-58
2022/03/07 08:11:41;;;;;;;35.00;16.10;;;;;;;7.21;35.98;98708.91;5006213;28;20037;-57
2022/03/07 08:14:06;;;;;;;33.85;14.95;;;;;;;8.27;34.83;98694.84;5003858;28;20030;-57
2022/03/07 08:16:31;;;;;;;32.90;12.60;;;;;;;6.59;36.18;98717.59;5003383;28;20069;-58
2022/03/07 08:18:57;;;;;;;39.85;16.35;;;;;;;7.48;35.65;98708.47;5003853;28;20021;-57
2022/03/07 08:21:25;;;;;;;40.42;16.98;;;;;;;5.63;38.59;98716.94;5006072;28;20034;-56
2022/03/07 08:23:56;;;;;;;36.38;13.68;;;;;;;7.70;35.42;98710.66;5005740;28;20072;-57
2022/03/07 08:26:22;;;;;;;36.72;17.30;;;;;;;5.62;36.27;98730.75;5005337;28;20053;-57
2022/03/07 08:28:48;;;;;;;38.13;14.95;;;;;;;7.04;34.87;98725.59;5008556;28;20030;-56
2022/03/07 08:31:13;;;;;;;36.35;13.98;;;;;;;7.05;35.82;98727.28;5005252;28;20076;-58
2022/03/07 08:33:38;;;;;;;38.72;13.18;;;;;;;7.60;33.38;98714.31;5003311;28;20029;-58
2022/03/07 08:36:04;;;;;;;38.33;14.35;;;;;;;8.63;32.33;98714.94;5005874;28;20133;-58
2022/03/07 08:38:30;;;;;;;40.28;15.02;;;;;;;7.08;34.13;98722.06;5005506;28;20718;-58
2022/03/07 08:40:55;;;;;;;38.83;17.08;;;;;;;7.27;33.93;98733.00;5003728;28;20094;-59
2022/03/07 08:43:21;;;;;;;35.80;13.43;;;;;;;6.43;34.93;98721.25;5004185;28;20129;-58
2022/03/07 08:45:46;;;;;;;36.50;15.30;;;;;;;8.54;32.58;98726.38;5003563;28;20088;-59
2022/03/07 08:48:11;;;;;;;40.38;13.07;;;;;;;8.30;33.19;98715.56;5004442;28;20021;-57
2022/03/07 08:50:37;;;;;;;38.95;12.63;;;;;;;6.26;34.67;98740.44;5005031;28;20037;-57
2022/03/07 08:53:02;;;;;;;38.35;13.90;;;;;;;6.23;35.85;98724.97;5005766;28;20033;-58
2022/03/07 08:55:28;;;;;;;37.58;12.20;;;;;;;5.81;36.06;98737.47;5005024;28;20030;-58
2022/03/07 08:57:53;;;;;;;34.95;11.50;;;;;;;7.57;34.25;98729.94;5003799;28;20018;-59
2022/03/07 09:00:18;;;;;;;36.03;14.95;;;;;;;7.18;33.71;98737.50;5008632;28;20036;-59
2022/03/07 09:02:44;;;;;;;34.83;13.38;;;;;;;5.50;37.11;98732.56;5007981;28;20066;-58
2022/03/07 09:05:09;;;;;;;41.90;15.38;;;;;;;5.03;37.93;98728.63;5007763;28;20033;-59
2022/03/07 09:07:35;;;;;;;39.38;14.07;;;;;;;4.72;38.79;98741.75;5006721;28;20040;-59
2022/03/07 09:10:00;;;;;;;42.13;15.20;;;;;;;3.52;40.90;98755.03;5008566;28;20060;-58
2022/03/07 09:12:28;;;;;;;37.45;13.35;;;;;;;2.96;41.70;98758.44;5007355;28;20460;-59
2022/03/07 09:15:00;;;;;;;49.60;16.25;;;;;;;1.89;43.89;98768.34;5007728;28;20080;-58
2022/03/07 09:17:26;;;;;;;46.03;14.27;;;;;;;2.12;43.71;98755.59;5006478;28;20050;-58
2022/03/07 09:19:53;;;;;;;48.70;15.55;;;;;;;2.80;43.06;98760.13;5007798;28;20099;-57
2022/03/07 09:22:19;;;;;;;52.08;14.90;;;;;;;3.87;41.92;98748.97;5006832;28;20037;-58
2022/03/07 09:24:45;;;;;;;56.50;15.82;;;;;;;6.16;38.66;98749.22;5006190;28;20087;-58
2022/03/07 09:27:10;;;;;;;43.38;12.88;;;;;;;5.60;39.02;98744.53;5009203;28;20092;-59
2022/03/07 09:29:36;;;;;;;42.20;14.38;;;;;;;4.14;40.70;98749.78;5005964;28;20499;-58
2022/03/07 09:32:04;;;;;;;45.70;14.02;;;;;;;3.18;41.66;98752.47;5006061;28;20574;-59
2022/03/07 09:34:30;;;;;;;36.33;12.23;;;;;;;3.38;42.22;98744.72;5007499;28;20099;-59
2022/03/07 09:36:55;;;;;;;45.40;13.18;;;;;;;3.03;42.59;98745.56;5005432;28;20042;-58
2022/03/07 09:39:20;;;;;;;38.00;11.05;;;;;;;1.97;43.70;98744.34;5006684;28;20113;-59
2022/03/07 09:41:46;;;;;;;42.97;13.75;;;;;;;3.35;42.82;98743.88;5005014;28;20137;-60
2022/03/07 09:44:11;;;;;;;40.55;13.68;;;;;;;3.12;43.01;98746.44;5008047;28;20140;-58
2022/03/07 09:46:37;;;;;;;38.03;12.60;;;;;;;2.78;43.63;98751.53;5006538;28;20138;-58
2022/03/07 09:49:03;;;;;;;44.92;14.90;;;;;;;2.65;44.33;98760.97;5006567;28;20404;-59
2022/03/07 09:51:28;;;;;;;46.10;14.45;;;;;;;2.64;44.59;98757.50;5005060;28;20145;-59
2022/03/07 09:53:54;;;;;;;46.90;13.13;;;;;;;2.24;45.83;98761.63;5006023;28;20133;-59
2022/03/07 09:56:19;;;;;;;38.95;12.50;;;;;;;3.05;44.92;98754.16;5006827;28;20370;-59
2022/03/07 09:58:45;;;;;;;44.00;12.57;;;;;;;3.67;43.80;98747.25;5007089;28;20117;-57
2022/03/07 10:01:14;;;;;;;49.10;13.63;;;;;;;3.74;43.73;98757.59;5007767;28;20064;-57
2022/03/07 10:03:40;;;;;;;42.60;12.80;;;;;;;4.23;43.28;98747.16;5008269;28;20471;-58
2022/03/07 10:06:14;;;;;;;45.20;12.07;;;;;;;6.31;40.58;98738.66;5005973;28;20277;-59
2022/03/07 10:08:53;;;;;;;46.85;13.95;;;;;;;5.48;39.85;98747.25;5006959;28;20025;-57
2022/03/07 10:11:19;;;;;;;40.17;12.98;;;;;;;4.79;40.59;98751.19;5007626;28;20042;-59
2022/03/07 10:13:56;;;;;;;39.70;13.20;;;;;;;4.85;39.90;98757.19;5008727;28;20392;-57
2022/03/07 10:16:22;;;;;;;44.17;12.90;;;;;;;5.67;39.37;98754.88;5005899;28;20034;-58
2022/03/07 10:18:52;;;;;;;42.53;12.93;;;;;;;5.87;37.89;98765.03;5006462;28;20176;-56
2022/03/07 10:21:25;;;;;;;34.13;11.93;;;;;;;5.42;38.96;98765.41;5007175;28;20065;-58
2022/03/07 10:23:55;;;;;;;37.30;11.10;;;;;;;4.65;39.79;98765.94;5006779;28;20087;-59
2022/03/07 10:26:22;;;;;;;39.08;12.48;;;;;;;5.24;39.56;98760.38;5013932;28;20056;-57
2022/03/07 10:28:53;;;;;;;36.38;13.13;;;;;;;3.53;41.54;98768.78;5007325;28;20140;-56
2022/03/07 10:31:19;;;;;;;37.95;12.63;;;;;;;3.40;42.05;98773.06;5004741;28;20037;-57
2022/03/07 10:33:46;;;;;;;38.95;11.10;;;;;;;3.81;41.24;98759.31;5007297;28;20030;-57
2022/03/07 10:36:12;;;;;;;36.47;11.88;;;;;;;3.81;40.94;98767.91;5004928;28;20038;-58
2022/03/07 10:38:38;;;;;;;37.55;9.93;;;;;;;4.36;41.50;98768.63;5006477;28;20064;-57
2022/03/07 10:41:04;;;;;;;42.58;12.65;;;;;;;4.47;40.65;98766.88;5005900;28;20705;-57
2022/03/07 10:43:29;;;;;;;39.50;11.15;;;;;;;6.40;38.65;98760.19;5004631;28;20337;-57
2022/03/07 10:45:58;;;;;;;39.55;11.18;;;;;;;7.46;36.41;98754.34;5005001;28;20558;-58
2022/03/07 10:48:27;;;;;;;39.15;12.35;;;;;;;6.29;38.41;98755.13;5006292;28;20026;-59
2022/03/07 10:50:58;;;;;;;34.00;9.77;;;;;;;5.81;38.31;98747.81;5005078;28;20043;-57
2022/03/07 10:53:24;;;;;;;32.72;11.10;;;;;;;5.21;39.58;98740.56;5006505;28;20026;-58
2022/03/07 10:55:52;;;;;;;31.95;10.23;;;;;;;6.81;38.10;98738.88;5004461;28;20066;-58
2022/03/07 10:58:17;;;;;;;32.10;10.30;;;;;;;5.71;38.46;98751.38;5005863;28;20033;-58
2022/03/07 11:00:48;;;;;;;39.10;12.07;;;;;;;6.26;37.94;98745.63;5003439;28;20034;-57
2022/03/07 11:03:22;;;;;;;31.05;9.90;;;;;;;5.91;38.49;98741.66;5005182;28;20052;-58
2022/03/07 11:05:48;;;;;;;41.15;10.35;;;;;;;5.32;39.95;98754.28;5005901;28;20072;-58
2022/03/07 11:08:15;;;;;;;38.22;7.93;;;;;;;5.06;40.61;98751.88;5006295;28;20456;-58
2022/03/07 11:10:45;;;;;;;38.80;9.70;;;;;;;4.29;42.01;98760.03;5003845;28;20069;-59
2022/03/07 11:13:12;;;;;;;32.00;9.35;;;;;;;4.37;41.74;98753.09;5007112;28;20025;-58
2022/03/07 11:15:38;;;;;;;32.63;8.35;;;;;;;5.58;40.59;98745.44;5006769;28;20068;-58